Terminal Aerodrome Forecast
Issued by NWS

Home | Current Version | Previous Version | Text Only | Print | Product List | Glossary On
Versions: 1 2 3 4 5 6 7 8 9 10 11 12 13
000
FTUS46 KPQR 172341
TAFONP
TAF
KONP 172341Z 1800/1824 19025G35KT 4SM -RA SCT010 BKN018 OVC025
     FM181000 19030G45KT 4SM -RA BKN010 OVC020
     FM181800 19025G35KT 5SM -RA BKN015 OVC025
     FM182200 20015G25KT 5SM -RA BKN015 OVC025=

USA.gov is the U.S. government's official web portal to all federal, state and local government web resources and services.